Terminal Aerodrome Forecast
Issued by NWS

Home | Current Version | Previous Version | Text Only | Print | Product List | Glossary On
Versions: 1 2 3 4 5 6 7 8 9 10 11 12 13
000
FTUS43 KILX 011100
TAFCMI
TAF
KCMI 011137Z 0112/0212 00000KT P6SM SCT080 BKN250
      TEMPO 0112/0113 3SM BR
     FM011900 24003KT P6SM VCTS BKN060CB
     FM020000 VRB03KT P6SM BKN150
     FM020600 00000KT 5SM BR SKC=

USA.gov is the U.S. government's official web portal to all federal, state and local government web resources and services.